Farewell, Alaska
Current Conditions -  °F | °C
As of 11:56 PM on Wednesday 22 Oct 2014 (Local Time) from PAFS Reporting Station
Overcast Overcast  
Wind Chill: 23°   Ceiling: 2700
Heat Index: 28°   Visibility: 10mi
Dew Point: 22°   Wind: 5mph
Humidity: 78%   Direction: 30°NNE
Pressure: 29.77"   Gusts: NA
Location:  62.51°N, 153.89°W
Report Text: PAFS 230756Z AUTO 03004KT 10SM SCT020 BKN027 OVC034 M02/M06 A2977 RMK AO2 TSNO T10221055 BKN V OVC SLP094 $
Loading
Personal Weather Stations






























Interactive Weather Map
Tropical Storm Tracking
New forecast layout! Learn more

10-Day Weather Forecast

Advertisements
Track Severe Weather on mobile